Time;durP1;ratioP1;P1;durP2;ratioP2;P2;SDS_P1;SDS_P2;PMS_P1;PMS_P2;Temp;Humidity;BMP_temperature;BMP_pressure;BME280_temperature;BME280_humidity;BME280_pressure;Samples;Min_cycle;Max_cycle;Signal;HPM_P1;HPM_P2
2021/10/15 00:01:24;;;;;;;1.73;1.17;;;;;;;11.45;44.21;100094.69;5099016;28;20023;-73
2021/10/15 00:03:49;;;;;;;1.00;0.77;;;;;;;11.44;44.40;100106.97;5099278;28;20062;-72
2021/10/15 00:06:15;;;;;;;2.15;0.90;;;;;;;11.38;44.77;100102.91;5098939;28;20032;-72
2021/10/15 00:08:44;;;;;;;1.45;0.90;;;;;;;11.44;43.37;100104.19;5098575;28;20504;-72
2021/10/15 00:11:09;;;;;;;1.80;0.80;;;;;;;11.42;43.58;100108.53;5117445;28;20031;-72
2021/10/15 00:13:35;;;;;;;3.85;1.08;;;;;;;11.40;44.14;100100.56;5099201;28;20046;-72
2021/10/15 00:16:03;;;;;;;0.70;0.70;;;;;;;11.43;44.01;100118.50;5098522;28;20110;-73
2021/10/15 00:18:32;;;;;;;5.68;1.00;;;;;;;11.45;44.18;100103.03;5098882;28;20118;-71
2021/10/15 00:21:03;;;;;;;1.17;1.00;;;;;;;11.46;43.21;100104.66;5098640;28;20031;-73
2021/10/15 00:23:29;;;;;;;2.33;0.90;;;;;;;11.44;43.94;100101.41;5098834;28;20123;-74
2021/10/15 00:25:57;;;;;;;5.10;0.80;;;;;;;11.38;44.49;100097.31;5098525;28;20077;-73
2021/10/15 00:28:23;;;;;;;2.33;0.65;;;;;;;11.41;44.49;100085.44;5098507;28;20032;-73
2021/10/15 00:30:48;;;;;;;1.92;1.42;;;;;;;11.48;43.77;100090.34;5098193;28;20125;-72
2021/10/15 00:33:14;;;;;;;2.20;0.70;;;;;;;11.47;43.34;100100.69;5098072;28;20035;-74
2021/10/15 00:35:40;;;;;;;1.90;1.15;;;;;;;11.52;43.46;100089.22;5098400;28;20110;-74
2021/10/15 00:38:05;;;;;;;1.50;0.93;;;;;;;11.49;44.18;100078.81;5098186;28;20035;-72
2021/10/15 00:40:34;;;;;;;1.65;0.95;;;;;;;11.45;44.88;100088.28;5098293;28;20024;-73
2021/10/15 00:43:02;;;;;;;2.92;1.00;;;;;;;11.44;44.91;100056.84;5098260;28;20024;-75
2021/10/15 00:45:33;;;;;;;3.15;1.02;;;;;;;11.41;44.20;100068.72;5115285;28;20038;-71
2021/10/15 00:47:59;;;;;;;1.20;0.80;;;;;;;11.48;43.52;100070.84;5098421;28;20027;-72
2021/10/15 00:50:27;;;;;;;4.15;1.08;;;;;;;11.45;44.62;100064.03;5098145;28;20386;-71
2021/10/15 00:52:53;;;;;;;1.08;0.98;;;;;;;11.46;45.10;100082.34;5098073;28;20039;-71
2021/10/15 00:55:18;;;;;;;1.35;0.98;;;;;;;11.45;45.02;100074.34;5098270;28;20031;-71
2021/10/15 00:57:47;;;;;;;4.22;1.52;;;;;;;11.68;42.13;100027.78;5098138;28;20023;-74
2021/10/15 01:00:13;;;;;;;3.22;0.90;;;;;;;11.63;43.55;100063.53;5098544;28;20476;-72
2021/10/15 01:02:38;;;;;;;3.20;1.08;;;;;;;11.55;44.41;100035.53;5097900;28;20116;-73
2021/10/15 01:05:07;;;;;;;0.88;0.57;;;;;;;11.60;44.37;100028.03;5097813;28;20058;-72
2021/10/15 01:07:34;;;;;;;2.72;0.70;;;;;;;11.60;44.14;100036.38;5116642;28;20035;-73
2021/10/15 01:10:04;;;;;;;2.22;1.15;;;;;;;11.54;43.96;100017.19;5097412;28;20162;-72
2021/10/15 01:12:31;;;;;;;1.05;0.80;;;;;;;11.58;44.15;100033.19;5097745;28;20533;-71
2021/10/15 01:14:57;;;;;;;1.17;1.00;;;;;;;11.56;44.74;100019.63;5097703;28;20126;-74
2021/10/15 01:17:25;;;;;;;2.30;1.00;;;;;;;11.59;44.82;100034.78;5097490;28;20110;-72
2021/10/15 01:19:57;;;;;;;3.38;1.27;;;;;;;11.60;44.64;100025.25;5097758;28;20386;-73
2021/10/15 01:22:28;;;;;;;1.02;1.00;;;;;;;11.45;44.32;100007.47;5098084;28;20423;-71
2021/10/15 01:24:54;;;;;;;1.88;0.98;;;;;;;11.60;44.23;100014.09;5098233;28;20036;-72
2021/10/15 01:27:23;;;;;;;3.05;0.88;;;;;;;11.58;44.47;100016.47;5098398;28;20032;-74
2021/10/15 01:29:52;;;;;;;2.53;0.80;;;;;;;11.61;44.73;100021.28;5099047;28;20554;-75
2021/10/15 01:32:21;;;;;;;0.95;0.80;;;;;;;11.54;45.28;100005.25;5098149;28;20043;-73
2021/10/15 01:34:47;;;;;;;2.47;0.95;;;;;;;11.55;45.20;100004.88;5098490;28;20031;-73
2021/10/15 01:37:14;;;;;;;0.75;0.75;;;;;;;11.53;45.34;99982.16;5099126;28;20032;-73
2021/10/15 01:39:39;;;;;;;1.05;0.85;;;;;;;11.55;45.29;99979.78;5099812;28;20067;-73
2021/10/15 01:42:05;;;;;;;5.35;1.08;;;;;;;11.59;45.49;99979.06;5101271;28;20031;-73
2021/10/15 01:44:31;;;;;;;1.00;0.70;;;;;;;11.60;44.23;99958.38;5102340;28;20363;-74
2021/10/15 01:46:59;;;;;;;0.77;0.77;;;;;;;11.52;45.21;99941.56;5099305;28;20474;-72
2021/10/15 01:49:25;;;;;;;0.85;0.85;;;;;;;11.62;44.37;99930.94;5098992;28;20038;-74
2021/10/15 01:51:53;;;;;;;1.35;1.13;;;;;;;11.69;44.24;99956.13;5098855;28;20458;-73
2021/10/15 01:54:24;;;;;;;0.88;0.88;;;;;;;11.66;44.49;99951.28;5096943;28;20028;-73
2021/10/15 01:56:50;;;;;;;6.05;1.10;;;;;;;11.63;44.88;99941.72;5097421;28;20339;-75
2021/10/15 01:59:16;;;;;;;1.20;1.02;;;;;;;11.60;45.67;99930.50;5097192;28;20042;-73
2021/10/15 02:01:45;;;;;;;2.70;1.33;;;;;;;11.66;45.51;99934.56;5096821;28;20027;-74
2021/10/15 02:04:13;;;;;;;1.90;0.80;;;;;;;11.57;45.59;99906.19;5096827;28;20031;-72
2021/10/15 02:06:39;;;;;;;4.20;1.40;;;;;;;11.54;46.82;99900.19;5096850;28;20031;-73
2021/10/15 02:09:08;;;;;;;1.40;0.90;;;;;;;11.47;46.61;99894.50;5096520;28;20058;-72
2021/10/15 02:11:39;;;;;;;4.90;1.40;;;;;;;11.48;46.64;99900.88;5097115;28;20035;-73
2021/10/15 02:14:07;;;;;;;1.17;0.85;;;;;;;11.53;46.63;99897.78;5098405;28;20055;-75
2021/10/15 02:16:33;;;;;;;1.50;0.88;;;;;;;11.53;46.67;99893.00;5098436;28;20042;-74
2021/10/15 02:19:01;;;;;;;1.65;0.98;;;;;;;11.36;47.12;99887.97;5096026;28;20028;-72
2021/10/15 02:21:27;;;;;;;4.68;1.02;;;;;;;11.49;47.17;99889.34;5096390;28;20019;-72
2021/10/15 02:23:55;;;;;;;8.70;0.90;;;;;;;11.51;46.99;99900.94;5096246;28;20062;-73
2021/10/15 02:26:23;;;;;;;3.53;1.10;;;;;;;11.51;46.32;99900.94;5096336;28;20031;-74
2021/10/15 02:28:52;;;;;;;1.75;0.95;;;;;;;11.55;46.97;99901.78;5096258;28;20031;-74
2021/10/15 02:31:20;;;;;;;1.02;0.90;;;;;;;11.52;46.90;99898.97;5096229;28;20093;-74
2021/10/15 02:33:52;;;;;;;2.78;1.67;;;;;;;11.51;47.21;99889.00;5097096;28;20031;-72
2021/10/15 02:36:20;;;;;;;0.90;0.80;;;;;;;11.42;47.57;99894.84;5096259;28;20035;-74
2021/10/15 02:38:47;;;;;;;0.80;0.80;;;;;;;11.41;48.29;99886.88;5096698;28;20034;-74
2021/10/15 02:41:13;;;;;;;0.77;0.77;;;;;;;11.36;48.38;99876.03;5096159;28;20530;-72
2021/10/15 02:43:42;;;;;;;2.20;0.90;;;;;;;11.35;48.02;99880.81;5096365;28;20035;-73
2021/10/15 02:46:07;;;;;;;2.08;0.90;;;;;;;11.34;47.91;99876.41;5096445;28;20049;-73
2021/10/15 02:48:33;;;;;;;1.75;0.82;;;;;;;11.32;48.89;99889.91;5096718;28;20526;-75
2021/10/15 02:51:01;;;;;;;2.20;1.10;;;;;;;11.32;48.76;99887.13;5096070;28;20508;-72
2021/10/15 02:53:31;;;;;;;1.00;0.65;;;;;;;11.41;48.41;99893.22;5096073;28;20035;-74
2021/10/15 02:55:57;;;;;;;0.80;0.80;;;;;;;11.36;48.70;99906.69;5096248;28;20020;-74
2021/10/15 02:58:26;;;;;;;0.93;0.93;;;;;;;11.40;47.80;99891.63;5096241;28;20164;-74
2021/10/15 03:00:55;;;;;;;0.85;0.85;;;;;;;11.36;48.29;99910.25;5096749;28;20024;-73
2021/10/15 03:03:22;;;;;;;1.80;0.80;;;;;;;11.32;48.91;99920.53;5097133;28;20059;-74
2021/10/15 03:05:51;;;;;;;1.15;0.60;;;;;;;11.32;48.87;99926.13;5096467;28;20484;-74
2021/10/15 03:08:19;;;;;;;1.65;0.77;;;;;;;11.36;48.72;99920.59;5096194;28;20082;-72
2021/10/15 03:10:45;;;;;;;0.80;0.80;;;;;;;11.36;48.85;99926.19;5096617;28;20028;-71
2021/10/15 03:13:15;;;;;;;1.95;1.00;;;;;;;11.39;48.11;99909.50;5095940;28;20375;-74
2021/10/15 03:15:40;;;;;;;0.90;0.90;;;;;;;11.36;48.82;99928.97;5096437;28;20024;-73
2021/10/15 03:18:06;;;;;;;0.75;0.63;;;;;;;11.36;47.72;99924.19;5096367;28;20084;-72
2021/10/15 03:20:37;;;;;;;1.17;0.95;;;;;;;11.37;48.63;99956.44;5095601;28;20489;-74
2021/10/15 03:23:07;;;;;;;1.80;0.82;;;;;;;11.42;48.17;99936.63;5096315;28;20422;-73
2021/10/15 03:25:36;;;;;;;0.80;0.80;;;;;;;11.41;48.23;99939.78;5091336;28;20043;-74
2021/10/15 03:28:02;;;;;;;1.95;0.95;;;;;;;11.42;47.82;99913.53;5095648;28;20032;-73
2021/10/15 03:30:28;;;;;;;0.70;0.70;;;;;;;11.41;48.16;99932.22;5095673;28;20076;-74
2021/10/15 03:32:56;;;;;;;1.35;1.10;;;;;;;11.42;47.81;99925.47;5095491;28;20054;-74
2021/10/15 03:35:22;;;;;;;0.70;0.70;;;;;;;11.50;47.17;99932.78;5095989;28;20378;-72
2021/10/15 03:37:48;;;;;;;2.13;0.80;;;;;;;11.54;46.71;99916.91;5096132;28;20096;-73
2021/10/15 03:40:14;;;;;;;0.50;0.50;;;;;;;11.52;47.14;99930.41;5095742;28;20462;-72
2021/10/15 03:42:40;;;;;;;1.65;1.00;;;;;;;11.48;47.20;99931.53;5095688;28;20028;-72
2021/10/15 03:45:07;;;;;;;0.57;0.57;;;;;;;11.46;46.64;99926.34;5095868;28;20378;-74
2021/10/15 03:47:34;;;;;;;0.70;0.70;;;;;;;11.47;47.13;99939.09;5096026;28;20123;-72
2021/10/15 03:50:06;;;;;;;0.70;0.70;;;;;;;11.47;46.95;99938.28;5095454;28;20036;-74
2021/10/15 03:52:35;;;;;;;1.15;0.80;;;;;;;11.50;46.91;99927.22;5093706;28;20031;-72
2021/10/15 03:55:01;;;;;;;0.88;0.88;;;;;;;11.51;46.60;99939.94;5099123;28;20023;-72
2021/10/15 03:57:28;;;;;;;1.17;0.73;;;;;;;11.53;46.73;99926.44;5099144;28;20032;-73
2021/10/15 03:59:54;;;;;;;2.38;0.93;;;;;;;11.50;47.31;99927.22;5098906;28;20051;-71
2021/10/15 04:02:19;;;;;;;0.70;0.70;;;;;;;11.53;46.31;99920.06;5099288;28;20103;-71
2021/10/15 04:04:47;;;;;;;1.15;0.70;;;;;;;11.42;46.57;99914.34;5099077;28;20030;-74
2021/10/15 04:07:19;;;;;;;0.85;0.60;;;;;;;11.49;46.45;99925.56;5099940;28;20035;-71
2021/10/15 04:09:44;;;;;;;0.70;0.70;;;;;;;11.52;45.80;99927.63;5098627;28;20138;-72
2021/10/15 04:12:15;;;;;;;1.85;0.90;;;;;;;11.54;45.23;99902.97;5099028;28;20119;-72
2021/10/15 04:14:45;;;;;;;1.77;0.90;;;;;;;11.58;45.76;99916.97;5098973;28;20104;-73
2021/10/15 04:17:13;;;;;;;2.30;0.95;;;;;;;11.62;45.16;99903.09;5099335;28;20024;-74
2021/10/15 04:19:39;;;;;;;1.65;0.82;;;;;;;11.65;45.01;99896.75;5098711;28;20059;-74
2021/10/15 04:22:05;;;;;;;0.90;0.80;;;;;;;11.63;44.38;99879.59;5099344;28;20093;-73
2021/10/15 04:24:30;;;;;;;0.77;0.77;;;;;;;11.54;45.43;99888.22;5098613;28;20028;-74
2021/10/15 04:26:59;;;;;;;3.05;0.70;;;;;;;11.57;45.99;99898.63;5099204;28;20027;-72
2021/10/15 04:29:25;;;;;;;4.03;1.00;;;;;;;11.54;45.62;99889.03;5098548;28;20036;-74
2021/10/15 04:31:53;;;;;;;2.90;0.80;;;;;;;11.52;46.27;99893.38;5098813;28;20027;-71
2021/10/15 04:34:19;;;;;;;2.55;0.70;;;;;;;11.50;46.20;99882.63;5099507;28;20467;-74
2021/10/15 04:36:45;;;;;;;1.38;1.00;;;;;;;11.47;46.09;99877.00;5100241;28;20119;-73
2021/10/15 04:39:15;;;;;;;0.85;0.68;;;;;;;11.44;46.24;99877.72;5097925;28;20118;-71
2021/10/15 04:41:40;;;;;;;3.95;1.10;;;;;;;11.40;46.75;99879.66;5098471;28;20038;-72
2021/10/15 04:44:09;;;;;;;2.75;0.80;;;;;;;11.45;45.88;99879.34;5098439;28;20027;-72
2021/10/15 04:46:38;;;;;;;1.05;0.70;;;;;;;11.40;46.65;99877.69;5099132;28;20469;-74
2021/10/15 04:49:03;;;;;;;0.70;0.70;;;;;;;11.37;46.98;99886.00;5098447;28;20504;-74
2021/10/15 04:51:32;;;;;;;0.60;0.60;;;;;;;11.41;46.67;99884.88;5098802;28;20039;-74
2021/10/15 04:54:04;;;;;;;0.60;0.60;;;;;;;11.40;47.69;99877.69;5100357;28;20032;-75
2021/10/15 04:56:35;;;;;;;4.68;0.90;;;;;;;11.49;46.28;99869.84;5099201;28;20028;-73
2021/10/15 04:59:06;;;;;;;1.08;0.80;;;;;;;11.43;46.42;99876.94;5098011;28;20020;-72
2021/10/15 05:01:32;;;;;;;0.90;0.63;;;;;;;11.45;46.38;99873.75;5098220;28;20024;-71
2021/10/15 05:04:00;;;;;;;2.95;0.60;;;;;;;11.44;46.19;99869.38;5097018;28;20087;-74
2021/10/15 05:06:25;;;;;;;4.18;0.80;;;;;;;11.41;46.40;99867.38;5098901;28;20027;-73
2021/10/15 05:11:32;;;;;;;1.73;0.73;;;;;;;11.38;47.22;99871.69;5097528;28;20036;-73
2021/10/15 05:14:01;;;;;;;1.90;0.73;;;;;;;11.37;47.39;99880.44;5095505;28;20028;-72
2021/10/15 05:16:27;;;;;;;1.17;0.65;;;;;;;11.35;47.44;99868.88;5094662;28;20036;-73
2021/10/15 05:18:55;;;;;;;2.42;0.85;;;;;;;11.32;47.04;99856.47;5094079;28;20030;-73
2021/10/15 05:21:21;;;;;;;1.58;0.98;;;;;;;11.37;47.12;99889.59;5094221;28;20032;-73
2021/10/15 05:23:50;;;;;;;1.17;0.80;;;;;;;11.32;47.04;99875.97;5094905;28;20027;-73
2021/10/15 05:26:18;;;;;;;0.73;0.73;;;;;;;11.36;47.30;99890.78;5094907;28;20425;-72
2021/10/15 05:28:45;;;;;;;0.98;0.57;;;;;;;11.36;47.30;99881.63;5093975;28;20021;-75
2021/10/15 05:31:13;;;;;;;2.85;1.05;;;;;;;11.35;46.98;99885.59;5093928;28;20054;-72
2021/10/15 05:33:42;;;;;;;0.80;0.80;;;;;;;11.26;47.51;99885.84;5093856;28;20024;-73
2021/10/15 05:36:08;;;;;;;0.82;0.77;;;;;;;11.27;47.62;99885.44;5094174;28;20032;-74
2021/10/15 05:38:38;;;;;;;0.95;0.80;;;;;;;11.40;47.14;99893.59;5093702;28;20023;-74
2021/10/15 05:41:04;;;;;;;1.35;0.70;;;;;;;11.49;46.72;99891.34;5094219;28;20044;-75
2021/10/15 05:43:32;;;;;;;2.47;0.65;;;;;;;11.48;47.03;99901.69;5093712;28;20120;-73
2021/10/15 05:45:58;;;;;;;1.73;0.82;;;;;;;11.43;47.04;99890.88;5077255;28;20386;-74
2021/10/15 05:48:29;;;;;;;1.52;0.80;;;;;;;11.42;47.11;99886.47;5093842;28;20107;-72
2021/10/15 05:50:58;;;;;;;1.60;0.88;;;;;;;11.43;46.98;99887.28;5093582;28;20028;-74
2021/10/15 05:53:26;;;;;;;1.75;1.13;;;;;;;11.62;46.02;99889.16;5093816;28;20090;-74
2021/10/15 06:01:08;;;;;;;2.30;0.68;;;;;;;12.93;43.58;99901.00;5094955;28;20101;-72
2021/10/15 06:03:34;;;;;;;1.17;1.08;;;;;;;13.07;43.16;99911.50;5093551;28;20028;-72
2021/10/15 06:16:42;;;;;;;2.58;1.10;;;;;;;15.02;37.50;99919.25;5115382;28;20063;-73
2021/10/15 06:19:12;;;;;;;1.60;0.88;;;;;;;15.06;37.72;99900.41;5096369;28;20034;-75
2021/10/15 06:21:44;;;;;;;0.70;0.70;;;;;;;15.40;37.05;99898.00;5096258;28;20035;-72
2021/10/15 06:24:09;;;;;;;0.95;0.95;;;;;;;15.48;36.85;99881.16;5092425;28;20032;-72
2021/10/15 06:26:35;;;;;;;2.90;1.00;;;;;;;15.42;36.82;99880.78;5096292;28;20038;-71
2021/10/15 06:29:04;;;;;;;4.40;1.45;;;;;;;15.63;35.99;99852.72;5096250;28;20090;-71
2021/10/15 06:31:30;;;;;;;2.53;1.15;;;;;;;15.31;37.04;99877.19;5096283;28;20027;-71
2021/10/15 06:33:56;;;;;;;0.80;0.80;;;;;;;15.70;37.05;99877.94;5079832;28;20370;-75
2021/10/15 06:36:22;;;;;;;2.72;1.02;;;;;;;16.54;35.45;99891.19;5096368;28;20023;-74
2021/10/15 06:38:51;;;;;;;1.52;1.13;;;;;;;15.73;35.78;99889.56;5096518;28;20028;-74
2021/10/15 06:41:22;;;;;;;1.40;0.95;;;;;;;15.52;36.05;99874.34;5095865;28;20034;-74
2021/10/15 06:43:49;;;;;;;1.13;0.90;;;;;;;15.76;36.26;99874.72;5114028;28;20104;-72
2021/10/15 06:46:15;;;;;;;1.17;1.05;;;;;;;15.85;35.76;99881.50;5096075;28;20478;-72
2021/10/15 06:48:47;;;;;;;1.73;1.08;;;;;;;15.35;36.30;99866.78;5096078;28;20386;-73
2021/10/15 06:51:17;;;;;;;3.80;1.17;;;;;;;15.58;36.49;99863.53;5095958;28;20070;-71
2021/10/15 06:53:43;;;;;;;1.02;0.90;;;;;;;15.75;35.60;99861.91;5096045;28;20035;-72
2021/10/15 06:56:12;;;;;;;1.48;1.10;;;;;;;15.74;36.25;99849.88;5096119;28;20050;-73
2021/10/15 06:58:40;;;;;;;3.28;1.83;;;;;;;16.23;35.85;99846.03;5096286;28;20050;-72
2021/10/15 07:01:06;;;;;;;2.80;1.10;;;;;;;15.94;35.60;99850.22;5095955;28;20027;-71
2021/10/15 07:03:32;;;;;;;1.15;0.80;;;;;;;16.08;35.14;99844.53;5095993;28;20028;-73
2021/10/15 07:06:00;;;;;;;1.45;0.80;;;;;;;16.10;35.91;99846.94;5095525;28;20044;-73
2021/10/15 07:08:26;;;;;;;2.35;1.10;;;;;;;16.66;35.17;99848.59;5093776;28;20576;-72
2021/10/15 07:10:55;;;;;;;2.30;0.80;;;;;;;16.57;34.88;99853.88;5094117;28;20089;-71
2021/10/15 07:13:24;;;;;;;1.08;0.98;;;;;;;16.84;34.79;99847.69;5094050;28;20478;-72
2021/10/15 07:15:53;;;;;;;3.42;1.08;;;;;;;16.74;34.73;99843.75;5092831;28;20060;-73
2021/10/15 07:18:25;;;;;;;2.47;0.90;;;;;;;16.76;34.85;99861.00;5092617;28;20024;-72
2021/10/15 07:20:54;;;;;;;4.18;0.93;;;;;;;16.42;35.83;99850.38;5094190;28;20082;-73
2021/10/15 07:23:22;;;;;;;0.95;0.85;;;;;;;16.71;35.46;99865.03;5094010;28;20436;-71
2021/10/15 07:25:50;;;;;;;1.73;1.00;;;;;;;16.49;35.61;99849.50;5094693;28;20451;-71
2021/10/15 07:28:22;;;;;;;2.92;1.00;;;;;;;17.67;33.61;99865.38;5098987;28;20032;-73
2021/10/15 07:30:51;;;;;;;2.45;1.20;;;;;;;18.00;33.10;99878.69;5101028;28;20090;-73
2021/10/15 07:33:22;;;;;;;3.10;1.52;;;;;;;17.93;33.16;99883.59;5100617;28;20030;-71
2021/10/15 07:35:50;;;;;;;1.55;1.10;;;;;;;18.65;32.56;99881.44;5099720;28;20040;-71
2021/10/15 07:38:16;;;;;;;1.60;1.45;;;;;;;18.52;32.80;99874.78;5099181;28;20028;-73
2021/10/15 07:40:41;;;;;;;3.28;0.90;;;;;;;18.58;32.56;99862.59;5097000;28;20024;-71
2021/10/15 07:43:10;;;;;;;3.38;1.45;;;;;;;18.17;33.36;99871.25;5096115;28;20039;-74
2021/10/15 07:45:41;;;;;;;3.03;1.02;;;;;;;18.58;32.77;99862.59;5096103;28;20032;-70
2021/10/15 07:48:12;;;;;;;4.45;1.45;;;;;;;19.24;31.33;99880.13;5095903;28;20020;-71
2021/10/15 07:50:38;;;;;;;1.10;1.00;;;;;;;17.97;32.49;99878.72;5095916;28;20035;-73
2021/10/15 07:53:06;;;;;;;2.63;1.08;;;;;;;18.44;32.46;99887.38;5096504;28;20028;-74
2021/10/15 07:55:35;;;;;;;1.52;1.10;;;;;;;17.60;33.20;99871.88;5096323;28;20028;-73
2021/10/15 07:58:05;;;;;;;1.23;0.90;;;;;;;17.94;32.54;99879.56;5095782;28;20020;-71
2021/10/15 08:00:32;;;;;;;1.67;1.02;;;;;;;17.20;32.29;99893.94;5095797;28;20090;-72
2021/10/15 08:02:57;;;;;;;2.33;1.23;;;;;;;17.78;32.33;99895.00;5095885;28;20020;-74
2021/10/15 08:05:23;;;;;;;1.30;1.00;;;;;;;16.53;34.33;99878.38;5095504;28;20035;-76
2021/10/15 08:07:49;;;;;;;1.52;1.17;;;;;;;16.97;34.09;99874.88;5097066;28;20454;-74
2021/10/15 08:10:21;;;;;;;3.38;1.27;;;;;;;16.98;33.45;99825.09;5099113;28;20454;-72
2021/10/15 08:12:49;;;;;;;1.90;0.88;;;;;;;17.27;33.51;99877.03;5099000;28;20534;-75
2021/10/15 08:15:15;;;;;;;1.40;1.30;;;;;;;17.07;33.56;99867.56;5099452;28;20078;-75
2021/10/15 08:17:42;;;;;;;1.25;0.82;;;;;;;16.48;34.76;99881.63;5099216;28;20054;-74
2021/10/15 08:20:13;;;;;;;6.40;1.20;;;;;;;16.84;34.56;99875.81;5098575;28;20068;-75
2021/10/15 08:22:39;;;;;;;1.52;1.10;;;;;;;17.54;33.49;99882.78;5098935;28;20031;-72
2021/10/15 08:25:06;;;;;;;2.00;1.20;;;;;;;17.73;32.65;99881.41;5098877;28;20109;-73
2021/10/15 08:27:35;;;;;;;3.63;1.58;;;;;;;17.43;33.09;99884.13;5099129;28;20028;-72
2021/10/15 08:30:01;;;;;;;1.58;1.15;;;;;;;16.83;34.12;99879.78;5098873;28;20028;-74
2021/10/15 08:32:27;;;;;;;1.23;1.10;;;;;;;17.84;32.26;99880.47;5098585;28;20114;-73
2021/10/15 08:34:55;;;;;;;2.83;1.50;;;;;;;17.86;32.43;99883.69;5100576;28;20430;-73
2021/10/15 08:37:24;;;;;;;1.23;0.82;;;;;;;16.94;32.19;99886.97;5100270;28;20116;-72
2021/10/15 08:39:50;;;;;;;5.40;1.20;;;;;;;16.54;33.26;99890.41;5098799;28;20030;-72
2021/10/15 08:42:15;;;;;;;1.55;0.82;;;;;;;16.15;33.98;99914.66;5099487;28;20032;-72
2021/10/15 08:44:46;;;;;;;1.88;0.82;;;;;;;16.52;33.67;99873.97;5098525;28;20436;-74
2021/10/15 08:47:17;;;;;;;1.10;1.00;;;;;;;16.34;33.16;99878.88;5098676;28;20114;-72
2021/10/15 08:49:44;;;;;;;1.42;0.90;;;;;;;16.38;33.68;99888.09;5099368;28;20055;-73
2021/10/15 08:52:11;;;;;;;1.60;0.75;;;;;;;16.67;32.93;99883.91;5099714;28;20020;-72
2021/10/15 08:54:38;;;;;;;1.75;1.17;;;;;;;16.42;33.58;99889.69;5099483;28;20031;-73
2021/10/15 08:57:06;;;;;;;1.00;1.00;;;;;;;16.65;33.24;99897.56;5098430;28;20112;-72
2021/10/15 08:59:46;;;;;;;1.38;1.08;;;;;;;17.10;33.32;99894.88;5098070;28;20032;-73
2021/10/15 09:02:20;;;;;;;1.13;1.02;;;;;;;17.85;31.84;99890.53;5098092;28;20038;-74
2021/10/15 09:04:57;;;;;;;1.52;0.95;;;;;;;16.94;33.22;99900.22;5098226;28;20069;-71
2021/10/15 09:07:27;;;;;;;3.58;1.10;;;;;;;16.01;35.32;99881.03;5098440;28;20036;-74
2021/10/15 09:10:09;;;;;;;4.20;1.10;;;;;;;15.31;35.90;99832.34;5097303;28;20055;-72
2021/10/15 09:12:43;;;;;;;1.60;1.15;;;;;;;16.74;34.64;99900.75;5097656;28;20061;-71
2021/10/15 09:15:09;;;;;;;4.63;1.00;;;;;;;16.27;35.50;99898.56;5097599;28;20500;-71
2021/10/15 09:17:49;;;;;;;7.70;1.30;;;;;;;17.08;34.57;99897.28;5097284;28;20023;-74
2021/10/15 09:20:29;;;;;;;7.75;1.63;;;;;;;17.68;32.78;99904.34;5097782;28;20039;-72
2021/10/15 09:22:55;;;;;;;1.20;1.10;;;;;;;17.73;33.03;99898.28;5098382;28;20024;-73
2021/10/15 09:25:24;;;;;;;1.95;1.48;;;;;;;16.93;33.60;99901.41;5097752;28;20089;-71
2021/10/15 09:27:57;;;;;;;3.03;1.20;;;;;;;17.52;33.10;99882.41;5115568;28;20038;-71
2021/10/15 09:30:25;;;;;;;4.65;1.75;;;;;;;17.80;33.46;99886.16;5097574;28;20039;-71
2021/10/15 09:32:56;;;;;;;1.95;1.10;;;;;;;17.03;33.92;99900.53;5116082;28;20020;-73
2021/10/15 09:35:27;;;;;;;4.45;1.40;;;;;;;17.61;33.31;99890.34;5097784;28;20450;-72
2021/10/15 09:38:00;;;;;;;2.17;1.40;;;;;;;17.21;33.65;99875.09;5097054;28;20195;-72
2021/10/15 09:40:27;;;;;;;3.13;1.50;;;;;;;17.39;33.66;99883.34;5097609;28;20478;-72
2021/10/15 09:42:56;;;;;;;2.47;1.35;;;;;;;16.93;34.57;99878.91;5097497;28;20050;-72
2021/10/15 09:45:34;;;;;;;1.27;1.17;;;;;;;17.00;34.74;99856.41;5097000;28;20031;-72
2021/10/15 09:48:02;;;;;;;1.50;1.25;;;;;;;16.57;34.66;99889.59;5097035;28;20057;-73
2021/10/15 09:50:34;;;;;;;3.78;1.00;;;;;;;17.24;34.07;99894.72;5096737;28;20028;-72
2021/10/15 09:53:02;;;;;;;4.82;1.30;;;;;;;17.02;34.16;99882.06;5097531;28;20381;-74
2021/10/15 09:55:34;;;;;;;2.22;1.40;;;;;;;17.53;33.95;99897.28;5096974;28;20478;-74
2021/10/15 09:58:21;;;;;;;1.20;1.10;;;;;;;17.39;33.20;99892.59;5115223;28;20428;-71
2021/10/15 10:00:51;;;;;;;1.40;1.10;;;;;;;17.62;32.93;99894.75;5114802;28;20035;-72
2021/10/15 10:03:18;;;;;;;2.28;1.38;;;;;;;17.85;32.81;99887.72;5096816;28;20076;-73
2021/10/15 10:05:47;;;;;;;0.80;0.80;;;;;;;17.21;32.85;99898.38;5079923;28;20042;-72
2021/10/15 10:08:14;;;;;;;1.75;1.05;;;;;;;17.17;33.93;99914.47;5096776;28;20130;-73
2021/10/15 10:10:44;;;;;;;3.15;1.27;;;;;;;17.23;34.33;99901.56;5096550;28;20058;-71
2021/10/15 10:13:15;;;;;;;1.65;0.90;;;;;;;17.12;34.70;99894.44;5097030;28;20389;-72
2021/10/15 10:15:43;;;;;;;1.63;1.50;;;;;;;16.09;35.98;99893.06;5096773;28;20027;-73
2021/10/15 10:18:29;;;;;;;2.20;1.40;;;;;;;16.31;35.96;99888.94;5098391;28;20383;-71
2021/10/15 10:21:09;;;;;;;1.73;1.50;;;;;;;16.65;35.38;99879.91;5097380;28;20032;-72
2021/10/15 10:23:53;;;;;;;1.75;1.27;;;;;;;16.74;34.37;99883.88;5096570;28;20028;-72
2021/10/15 10:26:22;;;;;;;2.45;1.50;;;;;;;17.25;34.07;99879.44;5115227;28;20028;-72
2021/10/15 10:29:05;;;;;;;2.25;1.60;;;;;;;17.76;32.92;99880.56;5096614;28;20028;-72
2021/10/15 10:31:32;;;;;;;1.30;1.03;;;;;;;17.98;32.65;99875.50;5096576;28;20450;-72
2021/10/15 10:33:59;;;;;;;0.98;0.90;;;;;;;17.50;32.72;99869.97;5097258;28;20140;-73
2021/10/15 10:36:26;;;;;;;3.97;0.82;;;;;;;16.95;33.29;99876.50;5096478;28;20061;-73
2021/10/15 10:38:52;;;;;;;2.50;0.90;;;;;;;16.54;33.87;99863.13;5096762;28;20351;-74
2021/10/15 10:41:31;;;;;;;2.25;1.27;;;;;;;16.49;34.50;99860.75;5096446;28;20028;-72
2021/10/15 10:43:59;;;;;;;2.67;1.27;;;;;;;16.02;36.32;99871.41;5096545;28;20031;-74
2021/10/15 10:46:29;;;;;;;1.63;1.10;;;;;;;15.55;36.71;99876.34;5096336;28;20031;-71
2021/10/15 10:48:54;;;;;;;1.88;0.95;;;;;;;15.44;37.77;99875.56;5096322;28;20031;-72
2021/10/15 10:51:31;;;;;;;3.70;1.70;;;;;;;15.48;37.83;99867.16;5096230;28;20024;-73
2021/10/15 10:53:59;;;;;;;2.92;1.20;;;;;;;15.49;36.97;99871.56;5096620;28;20024;-74
2021/10/15 10:56:50;;;;;;;2.58;1.17;;;;;;;15.06;37.69;99863.19;5096131;28;20032;-73
2021/10/15 10:59:16;;;;;;;3.28;1.63;;;;;;;15.28;38.08;99870.38;5096498;28;20028;-73
2021/10/15 11:01:48;;;;;;;2.17;1.42;;;;;;;15.19;37.94;99875.63;5097630;28;20462;-71
2021/10/15 11:04:37;;;;;;;1.67;1.10;;;;;;;15.04;37.94;99885.22;5100737;28;20023;-73
2021/10/15 11:07:06;;;;;;;3.42;1.50;;;;;;;15.18;38.33;99869.22;5100040;28;20077;-73
2021/10/15 11:09:39;;;;;;;2.38;1.48;;;;;;;15.37;38.04;99858.75;5113813;28;20082;-74
2021/10/15 11:12:10;;;;;;;1.63;1.52;;;;;;;15.45;37.86;99860.38;5096731;28;20028;-74
2021/10/15 11:14:59;;;;;;;4.60;2.08;;;;;;;15.61;36.52;99871.94;5097426;28;20028;-72
2021/10/15 11:17:24;;;;;;;2.85;1.95;;;;;;;15.38;36.18;99882.78;5096524;28;20382;-71
2021/10/15 11:20:33;;;;;;;1.83;1.45;;;;;;;15.60;35.65;99861.09;5097184;28;20032;-72
2021/10/15 11:23:10;;;;;;;3.58;1.35;;;;;;;15.92;35.64;99867.44;5018656;28;20053;-74
2021/10/15 11:25:46;;;;;;;1.70;1.35;;;;;;;15.78;35.85;99867.50;5107403;28;20036;-70
2021/10/15 11:28:20;;;;;;;3.55;1.20;;;;;;;15.61;35.53;99859.94;5095991;28;20089;-73
2021/10/15 11:30:50;;;;;;;;;;;;;;;15.62;35.20;99853.09;5096688;28;20039;-72
2021/10/15 11:33:19;;;;;;;4.18;1.17;;;;;;;15.57;35.35;99854.31;5090008;28;19964;-73
2021/10/15 11:35:46;;;;;;;1.75;1.13;;;;;;;15.47;35.64;99857.94;5096283;28;20030;-71
2021/10/15 11:38:26;;;;;;;1.55;1.15;;;;;;;15.22;35.68;99838.34;5095985;28;20024;-74
2021/10/15 11:40:58;;;;;;;3.08;1.48;;;;;;;15.35;36.32;99855.56;5095992;28;20031;-71
2021/10/15 11:43:32;;;;;;;3.25;1.20;;;;;;;15.47;36.44;99860.75;5096029;28;20078;-71
2021/10/15 11:46:14;;;;;;;1.80;1.35;;;;;;;15.52;35.70;99863.13;5095993;28;20038;-72
2021/10/15 11:48:48;;;;;;;2.05;1.67;;;;;;;15.59;35.50;99860.31;5096526;28;20055;-74
2021/10/15 11:51:19;;;;;;;1.52;1.02;;;;;;;15.64;35.00;99853.53;5095478;28;20034;-72
2021/10/15 11:53:53;;;;;;;4.45;1.30;;;;;;;15.46;35.11;99851.53;5095776;28;20031;-73
2021/10/15 11:56:21;;;;;;;1.60;1.33;;;;;;;15.54;35.19;99840.28;5095901;28;20115;-75
2021/10/15 11:58:49;;;;;;;2.00;1.40;;;;;;;15.42;35.38;99847.94;5095733;28;20028;-74